Terminal Aerodrome Forecast
Issued by NWS

Home | Current Version | Previous Version | Text Only | Print | Product List | Glossary Off
Versions: 1 2 3 4 5 6 7 8 9 10 11 12 13 14 15 16 17 18 19 20

000
FTUS43 KOAX 280533
TAFCDR
TAF
KCDR 280533Z 2806/2906 17017G26KT P6SM VCSH BKN120
     FM280900 20007KT P6SM SCT120
     FM282000 32008KT P6SM VCTS SCT040CB BKN070=

USA.gov is the U.S. government's official web portal to all federal, state and local government web resources and services.